sensor_id;sensor_type;location;lat;lon;timestamp;pressure;altitude;pressure_sealevel;temperature;humidity
20019;BME280;10170;42.502;26.526;2023-06-14T00:02:04;99344.88;;;16.76;nan
20019;BME280;10170;42.502;26.526;2023-06-14T00:04:31;99325.53;;;16.74;nan
20019;BME280;10170;42.502;26.526;2023-06-14T00:06:58;99332.47;;;16.97;nan
20019;BME280;10170;42.502;26.526;2023-06-14T00:09:25;99329.25;;;16.95;nan
20019;BME280;10170;42.502;26.526;2023-06-14T00:11:51;99319.31;;;16.96;nan
20019;BME280;10170;42.502;26.526;2023-06-14T00:14:19;99332.13;;;17.15;nan
20019;BME280;10170;42.502;26.526;2023-06-14T00:16:46;99331.56;;;17.13;nan
20019;BME280;10170;42.502;26.526;2023-06-14T00:19:12;99321.78;;;17.02;nan
20019;BME280;10170;42.502;26.526;2023-06-14T00:21:39;99329.53;;;16.99;nan
20019;BME280;10170;42.502;26.526;2023-06-14T00:24:07;99311.16;;;16.85;nan
20019;BME280;10170;42.502;26.526;2023-06-14T00:26:34;99322.44;;;16.88;nan
20019;BME280;10170;42.502;26.526;2023-06-14T00:29:01;99318.78;;;16.99;nan
20019;BME280;10170;42.502;26.526;2023-06-14T00:31:28;99307.34;;;17.08;nan
20019;BME280;10170;42.502;26.526;2023-06-14T00:33:55;99308.91;;;17.04;nan
20019;BME280;10170;42.502;26.526;2023-06-14T00:36:22;99325.28;;;17.03;nan
20019;BME280;10170;42.502;26.526;2023-06-14T00:38:48;99312.00;;;16.91;nan
20019;BME280;10170;42.502;26.526;2023-06-14T00:41:15;99323.69;;;17.07;nan
20019;BME280;10170;42.502;26.526;2023-06-14T00:43:42;99317.06;;;17.19;nan
20019;BME280;10170;42.502;26.526;2023-06-14T00:46:09;99321.41;;;17.20;nan
20019;BME280;10170;42.502;26.526;2023-06-14T00:48:37;99314.34;;;17.14;nan
20019;BME280;10170;42.502;26.526;2023-06-14T00:51:05;99311.47;;;16.94;nan
20019;BME280;10170;42.502;26.526;2023-06-14T00:53:33;99318.06;;;16.81;nan
20019;BME280;10170;42.502;26.526;2023-06-14T00:56:02;99327.72;;;16.77;nan
20019;BME280;10170;42.502;26.526;2023-06-14T00:58:30;99313.09;;;16.63;nan
20019;BME280;10170;42.502;26.526;2023-06-14T01:00:57;99320.38;;;16.68;nan
20019;BME280;10170;42.502;26.526;2023-06-14T01:03:24;99319.50;;;16.62;nan
20019;BME280;10170;42.502;26.526;2023-06-14T01:05:59;99323.84;;;16.63;nan
20019;BME280;10170;42.502;26.526;2023-06-14T01:11:22;99317.75;;;16.73;nan
20019;BME280;10170;42.502;26.526;2023-06-14T01:13:52;99308.56;;;16.69;nan
20019;BME280;10170;42.502;26.526;2023-06-14T01:16:20;99312.78;;;16.38;nan
20019;BME280;10170;42.502;26.526;2023-06-14T01:18:47;99322.97;;;16.36;nan
20019;BME280;10170;42.502;26.526;2023-06-14T01:21:24;99325.34;;;16.54;nan
20019;BME280;10170;42.502;26.526;2023-06-14T01:23:52;99321.94;;;16.42;nan
20019;BME280;10170;42.502;26.526;2023-06-14T01:26:21;99327.38;;;16.47;nan
20019;BME280;10170;42.502;26.526;2023-06-14T01:28:49;99326.91;;;16.50;nan
20019;BME280;10170;42.502;26.526;2023-06-14T01:31:20;99323.00;;;16.41;nan
20019;BME280;10170;42.502;26.526;2023-06-14T01:33:51;99324.47;;;16.27;nan
20019;BME280;10170;42.502;26.526;2023-06-14T01:36:19;99324.78;;;16.31;nan
20019;BME280;10170;42.502;26.526;2023-06-14T01:38:47;99317.59;;;16.15;nan
20019;BME280;10170;42.502;26.526;2023-06-14T01:41:17;99324.06;;;16.19;nan
20019;BME280;10170;42.502;26.526;2023-06-14T01:43:46;99331.31;;;16.40;nan
20019;BME280;10170;42.502;26.526;2023-06-14T01:46:14;99325.34;;;16.11;nan
20019;BME280;10170;42.502;26.526;2023-06-14T01:48:42;99319.81;;;16.01;nan
20019;BME280;10170;42.502;26.526;2023-06-14T01:51:10;99320.69;;;16.07;nan
20019;BME280;10170;42.502;26.526;2023-06-14T01:53:37;99325.81;;;16.08;nan
20019;BME280;10170;42.502;26.526;2023-06-14T01:56:03;99331.25;;;16.13;nan
20019;BME280;10170;42.502;26.526;2023-06-14T01:58:30;99322.94;;;15.55;nan
20019;BME280;10170;42.502;26.526;2023-06-14T02:00:57;99331.94;;;15.65;nan
20019;BME280;10170;42.502;26.526;2023-06-14T02:03:24;99336.69;;;15.80;nan
20019;BME280;10170;42.502;26.526;2023-06-14T02:05:52;99204.47;;;14.82;nan
20019;BME280;10170;42.502;26.526;2023-06-14T02:08:18;99332.81;;;15.71;nan
20019;BME280;10170;42.502;26.526;2023-06-14T02:10:45;99327.59;;;15.81;nan
20019;BME280;10170;42.502;26.526;2023-06-14T02:13:12;99320.72;;;15.68;nan
20019;BME280;10170;42.502;26.526;2023-06-14T02:15:39;99329.16;;;15.77;nan
20019;BME280;10170;42.502;26.526;2023-06-14T02:18:06;99333.22;;;15.79;nan
20019;BME280;10170;42.502;26.526;2023-06-14T02:20:33;99311.44;;;15.76;nan
20019;BME280;10170;42.502;26.526;2023-06-14T02:23:00;99325.97;;;15.80;nan
20019;BME280;10170;42.502;26.526;2023-06-14T02:25:27;99322.66;;;15.73;nan
20019;BME280;10170;42.502;26.526;2023-06-14T02:27:55;99309.75;;;15.70;nan
20019;BME280;10170;42.502;26.526;2023-06-14T02:30:22;99314.63;;;15.73;nan
20019;BME280;10170;42.502;26.526;2023-06-14T02:32:49;99325.34;;;15.73;nan
20019;BME280;10170;42.502;26.526;2023-06-14T02:35:17;99327.41;;;15.66;nan
20019;BME280;10170;42.502;26.526;2023-06-14T02:37:44;99341.28;;;15.63;nan
20019;BME280;10170;42.502;26.526;2023-06-14T02:40:11;99344.94;;;15.57;nan
20019;BME280;10170;42.502;26.526;2023-06-14T02:42:38;99345.97;;;15.56;nan
20019;BME280;10170;42.502;26.526;2023-06-14T02:45:06;99344.56;;;15.48;nan
20019;BME280;10170;42.502;26.526;2023-06-14T02:47:33;99345.34;;;15.49;nan
20019;BME280;10170;42.502;26.526;2023-06-14T02:50:00;99348.28;;;15.47;nan
20019;BME280;10170;42.502;26.526;2023-06-14T02:52:27;99308.47;;;15.23;nan
20019;BME280;10170;42.502;26.526;2023-06-14T02:54:53;99346.97;;;15.50;nan
20019;BME280;10170;42.502;26.526;2023-06-14T02:57:22;99343.16;;;15.62;nan
20019;BME280;10170;42.502;26.526;2023-06-14T02:59:49;99351.03;;;15.52;nan
20019;BME280;10170;42.502;26.526;2023-06-14T03:02:16;99350.88;;;15.59;nan
20019;BME280;10170;42.502;26.526;2023-06-14T03:04:43;99337.09;;;15.50;nan
20019;BME280;10170;42.502;26.526;2023-06-14T03:07:11;99346.78;;;15.73;nan
20019;BME280;10170;42.502;26.526;2023-06-14T03:09:39;99357.38;;;15.63;nan
20019;BME280;10170;42.502;26.526;2023-06-14T03:12:06;99370.69;;;15.58;nan
20019;BME280;10170;42.502;26.526;2023-06-14T03:14:33;99357.88;;;15.43;nan
20019;BME280;10170;42.502;26.526;2023-06-14T03:17:02;99351.19;;;15.46;nan
20019;BME280;10170;42.502;26.526;2023-06-14T03:19:31;99350.16;;;15.47;nan
20019;BME280;10170;42.502;26.526;2023-06-14T03:21:58;99344.69;;;15.42;nan
20019;BME280;10170;42.502;26.526;2023-06-14T03:24:25;99357.19;;;15.53;nan
20019;BME280;10170;42.502;26.526;2023-06-14T03:26:55;99351.94;;;15.41;nan
20019;BME280;10170;42.502;26.526;2023-06-14T03:29:23;99346.66;;;15.63;nan
20019;BME280;10170;42.502;26.526;2023-06-14T03:32:00;99351.97;;;15.79;nan
20019;BME280;10170;42.502;26.526;2023-06-14T03:34:28;99360.34;;;15.83;nan
20019;BME280;10170;42.502;26.526;2023-06-14T03:36:54;99357.25;;;15.74;nan
20019;BME280;10170;42.502;26.526;2023-06-14T03:39:22;99343.03;;;15.74;nan
20019;BME280;10170;42.502;26.526;2023-06-14T03:41:49;99347.50;;;15.85;nan
20019;BME280;10170;42.502;26.526;2023-06-14T03:44:17;99343.28;;;15.89;nan
20019;BME280;10170;42.502;26.526;2023-06-14T03:46:47;99346.97;;;16.05;nan
20019;BME280;10170;42.502;26.526;2023-06-14T03:49:14;99307.66;;;15.72;nan
20019;BME280;10170;42.502;26.526;2023-06-14T03:51:43;99343.34;;;15.94;nan
20019;BME280;10170;42.502;26.526;2023-06-14T03:54:10;99351.94;;;15.96;nan
20019;BME280;10170;42.502;26.526;2023-06-14T03:56:57;99339.22;;;16.08;nan
20019;BME280;10170;42.502;26.526;2023-06-14T03:59:23;99345.53;;;15.97;nan
20019;BME280;10170;42.502;26.526;2023-06-14T04:01:53;99346.91;;;16.00;nan
20019;BME280;10170;42.502;26.526;2023-06-14T04:04:20;99357.44;;;16.06;nan
20019;BME280;10170;42.502;26.526;2023-06-14T04:06:47;99365.06;;;16.14;nan
20019;BME280;10170;42.502;26.526;2023-06-14T04:09:15;99348.78;;;16.21;nan
20019;BME280;10170;42.502;26.526;2023-06-14T04:11:42;99359.38;;;16.49;nan
20019;BME280;10170;42.502;26.526;2023-06-14T04:14:08;99353.78;;;16.55;nan
20019;BME280;10170;42.502;26.526;2023-06-14T04:16:35;99358.09;;;16.56;nan
20019;BME280;10170;42.502;26.526;2023-06-14T04:19:02;99356.88;;;16.69;nan
20019;BME280;10170;42.502;26.526;2023-06-14T04:21:29;99352.75;;;16.83;nan
20019;BME280;10170;42.502;26.526;2023-06-14T04:23:56;99354.16;;;16.91;nan
20019;BME280;10170;42.502;26.526;2023-06-14T04:26:22;99373.72;;;17.13;nan
20019;BME280;10170;42.502;26.526;2023-06-14T04:28:56;99371.84;;;17.13;nan
20019;BME280;10170;42.502;26.526;2023-06-14T04:31:29;99371.38;;;17.21;nan
20019;BME280;10170;42.502;26.526;2023-06-14T04:33:56;99368.25;;;17.29;nan
20019;BME280;10170;42.502;26.526;2023-06-14T04:36:23;99368.84;;;17.36;nan
20019;BME280;10170;42.502;26.526;2023-06-14T04:38:50;99376.00;;;17.57;nan
20019;BME280;10170;42.502;26.526;2023-06-14T04:41:21;99381.78;;;17.71;nan
20019;BME280;10170;42.502;26.526;2023-06-14T04:43:49;99372.00;;;18.02;nan
20019;BME280;10170;42.502;26.526;2023-06-14T04:46:16;99385.34;;;18.28;nan
20019;BME280;10170;42.502;26.526;2023-06-14T04:48:43;99372.91;;;18.17;nan
20019;BME280;10170;42.502;26.526;2023-06-14T04:51:12;99415.69;;;18.65;nan
20019;BME280;10170;42.502;26.526;2023-06-14T04:53:39;99395.66;;;18.46;nan
20019;BME280;10170;42.502;26.526;2023-06-14T04:56:06;99411.91;;;18.61;nan
20019;BME280;10170;42.502;26.526;2023-06-14T04:58:33;99422.78;;;18.91;nan
20019;BME280;10170;42.502;26.526;2023-06-14T05:01:00;99410.38;;;18.85;nan
20019;BME280;10170;42.502;26.526;2023-06-14T05:03:28;99428.44;;;18.95;nan
20019;BME280;10170;42.502;26.526;2023-06-14T05:05:57;99421.47;;;19.09;nan
20019;BME280;10170;42.502;26.526;2023-06-14T05:08:24;99433.69;;;19.32;nan
20019;BME280;10170;42.502;26.526;2023-06-14T05:10:51;99439.63;;;19.39;nan
20019;BME280;10170;42.502;26.526;2023-06-14T05:13:18;99437.97;;;19.28;nan
20019;BME280;10170;42.502;26.526;2023-06-14T05:15:45;99444.72;;;19.30;nan
20019;BME280;10170;42.502;26.526;2023-06-14T05:18:12;99439.91;;;19.47;nan
20019;BME280;10170;42.502;26.526;2023-06-14T05:20:40;99448.28;;;19.66;nan
20019;BME280;10170;42.502;26.526;2023-06-14T05:23:09;99448.25;;;19.36;nan
20019;BME280;10170;42.502;26.526;2023-06-14T05:25:45;99456.91;;;19.58;nan
20019;BME280;10170;42.502;26.526;2023-06-14T05:28:12;99460.16;;;19.70;nan
20019;BME280;10170;42.502;26.526;2023-06-14T05:30:39;99453.13;;;19.99;nan
20019;BME280;10170;42.502;26.526;2023-06-14T05:33:06;99460.38;;;20.34;nan
20019;BME280;10170;42.502;26.526;2023-06-14T05:35:33;99466.88;;;20.28;nan
20019;BME280;10170;42.502;26.526;2023-06-14T05:38:00;99475.19;;;20.51;nan
20019;BME280;10170;42.502;26.526;2023-06-14T05:40:27;99481.22;;;20.23;nan
20019;BME280;10170;42.502;26.526;2023-06-14T05:42:55;99479.03;;;20.35;nan
20019;BME280;10170;42.502;26.526;2023-06-14T05:45:22;99487.63;;;20.47;nan
20019;BME280;10170;42.502;26.526;2023-06-14T05:47:49;99484.63;;;20.64;nan
20019;BME280;10170;42.502;26.526;2023-06-14T05:50:17;99483.72;;;20.88;nan
20019;BME280;10170;42.502;26.526;2023-06-14T05:52:43;99482.50;;;21.25;nan
20019;BME280;10170;42.502;26.526;2023-06-14T05:55:10;99483.41;;;21.54;nan
20019;BME280;10170;42.502;26.526;2023-06-14T05:57:39;99498.41;;;21.75;nan
20019;BME280;10170;42.502;26.526;2023-06-14T06:00:08;99500.03;;;21.76;nan
20019;BME280;10170;42.502;26.526;2023-06-14T06:02:43;99499.59;;;21.59;nan
20019;BME280;10170;42.502;26.526;2023-06-14T06:05:12;99495.91;;;21.83;nan
20019;BME280;10170;42.502;26.526;2023-06-14T06:07:39;99506.34;;;22.00;nan
20019;BME280;10170;42.502;26.526;2023-06-14T06:10:07;99501.47;;;22.02;nan
20019;BME280;10170;42.502;26.526;2023-06-14T06:12:34;99507.28;;;22.19;nan
20019;BME280;10170;42.502;26.526;2023-06-14T06:15:01;99509.59;;;22.31;nan
20019;BME280;10170;42.502;26.526;2023-06-14T06:17:29;99504.28;;;22.49;nan
20019;BME280;10170;42.502;26.526;2023-06-14T06:20:08;99507.88;;;22.68;nan
20019;BME280;10170;42.502;26.526;2023-06-14T06:22:36;99504.94;;;22.88;nan
20019;BME280;10170;42.502;26.526;2023-06-14T06:25:03;99508.56;;;23.02;nan
20019;BME280;10170;42.502;26.526;2023-06-14T06:27:30;99501.03;;;22.99;nan
20019;BME280;10170;42.502;26.526;2023-06-14T06:29:57;99500.50;;;23.16;nan
20019;BME280;10170;42.502;26.526;2023-06-14T06:32:24;99507.88;;;23.16;nan
20019;BME280;10170;42.502;26.526;2023-06-14T06:34:51;99503.59;;;23.52;nan
20019;BME280;10170;42.502;26.526;2023-06-14T06:37:18;99511.88;;;23.60;nan
20019;BME280;10170;42.502;26.526;2023-06-14T06:39:45;99513.56;;;23.75;nan
20019;BME280;10170;42.502;26.526;2023-06-14T06:42:12;99519.28;;;24.11;nan
20019;BME280;10170;42.502;26.526;2023-06-14T06:44:39;99520.72;;;24.22;nan
20019;BME280;10170;42.502;26.526;2023-06-14T06:47:06;99515.06;;;23.99;nan
20019;BME280;10170;42.502;26.526;2023-06-14T06:49:32;99523.28;;;24.13;nan
20019;BME280;10170;42.502;26.526;2023-06-14T06:52:05;99519.47;;;24.14;nan
20019;BME280;10170;42.502;26.526;2023-06-14T06:54:32;99515.41;;;24.44;nan
20019;BME280;10170;42.502;26.526;2023-06-14T06:56:59;99522.13;;;24.33;nan
20019;BME280;10170;42.502;26.526;2023-06-14T06:59:28;99515.81;;;24.51;nan
20019;BME280;10170;42.502;26.526;2023-06-14T07:01:55;99504.31;;;24.40;nan
20019;BME280;10170;42.502;26.526;2023-06-14T07:04:22;99499.66;;;25.00;nan
20019;BME280;10170;42.502;26.526;2023-06-14T07:06:49;99516.34;;;25.48;nan
20019;BME280;10170;42.502;26.526;2023-06-14T07:09:16;99512.00;;;25.33;nan
20019;BME280;10170;42.502;26.526;2023-06-14T07:11:43;99500.97;;;24.89;nan
20019;BME280;10170;42.502;26.526;2023-06-14T07:14:11;99504.09;;;25.10;nan
20019;BME280;10170;42.502;26.526;2023-06-14T07:16:38;99489.38;;;25.11;nan
20019;BME280;10170;42.502;26.526;2023-06-14T07:19:05;99514.94;;;25.50;nan
20019;BME280;10170;42.502;26.526;2023-06-14T07:21:32;99505.63;;;25.65;nan
20019;BME280;10170;42.502;26.526;2023-06-14T07:23:59;99507.06;;;26.07;nan
20019;BME280;10170;42.502;26.526;2023-06-14T07:26:26;99515.44;;;25.74;nan
20019;BME280;10170;42.502;26.526;2023-06-14T07:28:53;99514.78;;;26.05;nan
20019;BME280;10170;42.502;26.526;2023-06-14T07:31:19;99507.06;;;26.07;nan
20019;BME280;10170;42.502;26.526;2023-06-14T07:33:47;99505.84;;;25.55;nan
20019;BME280;10170;42.502;26.526;2023-06-14T07:36:14;99509.22;;;25.74;nan
20019;BME280;10170;42.502;26.526;2023-06-14T07:38:41;99507.88;;;26.29;nan
20019;BME280;10170;42.502;26.526;2023-06-14T07:41:08;99511.84;;;26.54;nan
20019;BME280;10170;42.502;26.526;2023-06-14T07:43:34;99499.00;;;26.24;nan
20019;BME280;10170;42.502;26.526;2023-06-14T07:46:01;99497.38;;;26.53;nan
20019;BME280;10170;42.502;26.526;2023-06-14T07:48:33;99511.84;;;26.01;nan
20019;BME280;10170;42.502;26.526;2023-06-14T07:51:00;99512.31;;;25.32;nan
20019;BME280;10170;42.502;26.526;2023-06-14T07:53:28;99501.56;;;24.99;nan
20019;BME280;10170;42.502;26.526;2023-06-14T07:55:55;99493.75;;;24.84;nan
20019;BME280;10170;42.502;26.526;2023-06-14T07:58:22;99502.69;;;24.71;nan
20019;BME280;10170;42.502;26.526;2023-06-14T08:00:48;99502.63;;;24.58;nan
20019;BME280;10170;42.502;26.526;2023-06-14T08:03:16;99501.56;;;25.13;nan
20019;BME280;10170;42.502;26.526;2023-06-14T08:05:43;99497.22;;;25.97;nan
20019;BME280;10170;42.502;26.526;2023-06-14T08:08:10;99482.81;;;26.27;nan
20019;BME280;10170;42.502;26.526;2023-06-14T08:10:36;99505.59;;;25.16;nan
20019;BME280;10170;42.502;26.526;2023-06-14T08:13:03;99496.50;;;25.69;nan
20019;BME280;10170;42.502;26.526;2023-06-14T08:15:30;99499.75;;;26.46;nan
20019;BME280;10170;42.502;26.526;2023-06-14T08:17:57;99493.34;;;27.38;nan
20019;BME280;10170;42.502;26.526;2023-06-14T08:20:27;99483.91;;;27.52;nan
20019;BME280;10170;42.502;26.526;2023-06-14T08:22:53;99485.44;;;27.19;nan
20019;BME280;10170;42.502;26.526;2023-06-14T08:25:23;99480.34;;;26.78;nan
20019;BME280;10170;42.502;26.526;2023-06-14T08:27:50;99485.78;;;27.18;nan
20019;BME280;10170;42.502;26.526;2023-06-14T08:30:17;99467.78;;;27.25;nan
20019;BME280;10170;42.502;26.526;2023-06-14T08:32:44;99480.59;;;27.08;nan
20019;BME280;10170;42.502;26.526;2023-06-14T08:35:12;99482.75;;;27.45;nan
20019;BME280;10170;42.502;26.526;2023-06-14T08:37:42;99486.06;;;27.08;nan
20019;BME280;10170;42.502;26.526;2023-06-14T08:40:29;99487.38;;;27.19;nan
20019;BME280;10170;42.502;26.526;2023-06-14T08:42:57;99476.34;;;26.45;nan
20019;BME280;10170;42.502;26.526;2023-06-14T08:45:24;99480.25;;;26.22;nan
20019;BME280;10170;42.502;26.526;2023-06-14T08:47:56;99462.88;;;25.96;nan
20019;BME280;10170;42.502;26.526;2023-06-14T08:50:27;99470.94;;;26.01;nan
20019;BME280;10170;42.502;26.526;2023-06-14T08:52:58;99472.38;;;26.21;nan
20019;BME280;10170;42.502;26.526;2023-06-14T08:55:29;99472.84;;;26.00;nan
20019;BME280;10170;42.502;26.526;2023-06-14T08:58:00;99475.16;;;25.63;nan
20019;BME280;10170;42.502;26.526;2023-06-14T09:00:27;99458.75;;;25.54;nan
20019;BME280;10170;42.502;26.526;2023-06-14T09:02:55;99471.53;;;26.42;nan
20019;BME280;10170;42.502;26.526;2023-06-14T09:05:26;99471.31;;;27.17;nan
20019;BME280;10170;42.502;26.526;2023-06-14T09:07:54;99462.69;;;27.49;nan
20019;BME280;10170;42.502;26.526;2023-06-14T09:10:32;99465.25;;;27.80;nan
20019;BME280;10170;42.502;26.526;2023-06-14T09:13:04;99462.66;;;27.83;nan
20019;BME280;10170;42.502;26.526;2023-06-14T09:15:31;99468.44;;;27.39;nan
20019;BME280;10170;42.502;26.526;2023-06-14T09:18:01;99463.50;;;27.67;nan
20019;BME280;10170;42.502;26.526;2023-06-14T09:20:29;99455.28;;;27.84;nan
20019;BME280;10170;42.502;26.526;2023-06-14T09:22:56;99472.19;;;27.94;nan
20019;BME280;10170;42.502;26.526;2023-06-14T09:25:24;99472.63;;;27.79;nan
20019;BME280;10170;42.502;26.526;2023-06-14T09:28:07;99470.56;;;27.51;nan
20019;BME280;10170;42.502;26.526;2023-06-14T09:30:36;99462.19;;;27.98;nan
20019;BME280;10170;42.502;26.526;2023-06-14T09:33:03;99471.50;;;27.72;nan
20019;BME280;10170;42.502;26.526;2023-06-14T09:35:31;99482.31;;;27.51;nan
20019;BME280;10170;42.502;26.526;2023-06-14T09:37:59;99483.66;;;27.23;nan
20019;BME280;10170;42.502;26.526;2023-06-14T09:40:26;99473.75;;;27.70;nan
20019;BME280;10170;42.502;26.526;2023-06-14T09:42:54;99485.00;;;28.20;nan
20019;BME280;10170;42.502;26.526;2023-06-14T09:45:22;99484.94;;;28.54;nan
20019;BME280;10170;42.502;26.526;2023-06-14T09:47:49;99485.78;;;27.18;nan
20019;BME280;10170;42.502;26.526;2023-06-14T09:50:31;99476.84;;;26.86;nan
20019;BME280;10170;42.502;26.526;2023-06-14T09:53:10;99479.31;;;26.66;nan
20019;BME280;10170;42.502;26.526;2023-06-14T09:55:37;99480.69;;;26.85;nan
20019;BME280;10170;42.502;26.526;2023-06-14T09:58:07;99476.97;;;26.42;nan
20019;BME280;10170;42.502;26.526;2023-06-14T10:00:36;99479.88;;;26.46;nan
20019;BME280;10170;42.502;26.526;2023-06-14T10:03:11;99455.75;;;26.31;nan
20019;BME280;10170;42.502;26.526;2023-06-14T10:05:40;99443.03;;;27.04;nan
20019;BME280;10170;42.502;26.526;2023-06-14T10:08:09;99462.16;;;28.16;nan
20019;BME280;10170;42.502;26.526;2023-06-14T10:10:39;99469.00;;;29.14;nan
20019;BME280;10170;42.502;26.526;2023-06-14T10:13:07;99470.81;;;28.72;nan
20019;BME280;10170;42.502;26.526;2023-06-14T10:21:28;99447.66;;;26.95;nan
20019;BME280;10170;42.502;26.526;2023-06-14T10:23:56;99456.09;;;27.59;nan
20019;BME280;10170;42.502;26.526;2023-06-14T10:26:26;99460.09;;;27.95;nan
20019;BME280;10170;42.502;26.526;2023-06-14T10:28:59;99457.31;;;28.21;nan
20019;BME280;10170;42.502;26.526;2023-06-14T10:31:47;99464.59;;;27.83;nan
20019;BME280;10170;42.502;26.526;2023-06-14T10:37:25;99466.16;;;27.16;nan
20019;BME280;10170;42.502;26.526;2023-06-14T10:39:53;99465.25;;;27.37;nan
20019;BME280;10170;42.502;26.526;2023-06-14T10:42:20;99461.81;;;26.58;nan
20019;BME280;10170;42.502;26.526;2023-06-14T10:44:50;99464.47;;;26.50;nan
20019;BME280;10170;42.502;26.526;2023-06-14T10:47:26;99464.88;;;26.65;nan
20019;BME280;10170;42.502;26.526;2023-06-14T10:49:54;99454.34;;;27.37;nan
20019;BME280;10170;42.502;26.526;2023-06-14T10:52:26;99445.44;;;27.91;nan
20019;BME280;10170;42.502;26.526;2023-06-14T10:55:08;99459.16;;;28.46;nan
20019;BME280;10170;42.502;26.526;2023-06-14T10:57:44;99453.31;;;28.94;nan
20019;BME280;10170;42.502;26.526;2023-06-14T11:00:20;99462.59;;;28.26;nan
20019;BME280;10170;42.502;26.526;2023-06-14T11:05:58;99454.91;;;29.24;nan
20019;BME280;10170;42.502;26.526;2023-06-14T11:11:08;99459.25;;;28.67;nan
20019;BME280;10170;42.502;26.526;2023-06-14T11:13:39;99449.44;;;29.24;nan
20019;BME280;10170;42.502;26.526;2023-06-14T11:16:16;99450.50;;;29.32;nan
20019;BME280;10170;42.502;26.526;2023-06-14T11:18:44;99447.03;;;28.93;nan
20019;BME280;10170;42.502;26.526;2023-06-14T11:21:16;99441.06;;;28.25;nan
20019;BME280;10170;42.502;26.526;2023-06-14T11:23:53;99452.09;;;27.48;nan
20019;BME280;10170;42.502;26.526;2023-06-14T11:26:29;99441.06;;;26.96;nan
20019;BME280;10170;42.502;26.526;2023-06-14T11:29:00;99445.25;;;26.94;nan
20019;BME280;10170;42.502;26.526;2023-06-14T11:31:28;99448.31;;;27.01;nan
20019;BME280;10170;42.502;26.526;2023-06-14T11:33:56;99392.47;;;26.59;nan
20019;BME280;10170;42.502;26.526;2023-06-14T11:36:28;99439.16;;;26.97;nan
20019;BME280;10170;42.502;26.526;2023-06-14T11:39:05;99440.13;;;27.27;nan
20019;BME280;10170;42.502;26.526;2023-06-14T11:44:05;99445.84;;;28.74;nan
20019;BME280;10170;42.502;26.526;2023-06-14T11:46:32;99402.38;;;27.97;nan
20019;BME280;10170;42.502;26.526;2023-06-14T11:48:59;99442.75;;;28.00;nan
20019;BME280;10170;42.502;26.526;2023-06-14T11:51:33;99442.78;;;28.38;nan
20019;BME280;10170;42.502;26.526;2023-06-14T11:54:02;99445.28;;;28.14;nan
20019;BME280;10170;42.502;26.526;2023-06-14T11:56:30;99442.38;;;28.10;nan
20019;BME280;10170;42.502;26.526;2023-06-14T11:58:58;99432.44;;;27.88;nan
20019;BME280;10170;42.502;26.526;2023-06-14T12:01:54;99428.47;;;27.35;nan
20019;BME280;10170;42.502;26.526;2023-06-14T12:04:24;99437.28;;;27.49;nan
20019;BME280;10170;42.502;26.526;2023-06-14T12:06:53;99438.06;;;27.24;nan
20019;BME280;10170;42.502;26.526;2023-06-14T12:09:22;99433.47;;;26.76;nan
20019;BME280;10170;42.502;26.526;2023-06-14T12:11:50;99425.22;;;27.16;nan
20019;BME280;10170;42.502;26.526;2023-06-14T12:14:17;99418.97;;;27.75;nan
20019;BME280;10170;42.502;26.526;2023-06-14T12:16:44;99433.97;;;28.32;nan
20019;BME280;10170;42.502;26.526;2023-06-14T12:19:15;99426.81;;;28.77;nan
20019;BME280;10170;42.502;26.526;2023-06-14T12:21:43;99418.91;;;28.55;nan
20019;BME280;10170;42.502;26.526;2023-06-14T12:24:14;99428.25;;;29.13;nan
20019;BME280;10170;42.502;26.526;2023-06-14T12:26:41;99426.50;;;30.47;nan
20019;BME280;10170;42.502;26.526;2023-06-14T12:29:09;99431.03;;;29.66;nan
20019;BME280;10170;42.502;26.526;2023-06-14T12:31:37;99428.88;;;28.89;nan
20019;BME280;10170;42.502;26.526;2023-06-14T12:34:04;99423.03;;;28.24;nan
20019;BME280;10170;42.502;26.526;2023-06-14T12:36:31;99416.16;;;28.09;nan
20019;BME280;10170;42.502;26.526;2023-06-14T12:38:58;99411.81;;;28.08;nan
20019;BME280;10170;42.502;26.526;2023-06-14T12:41:26;99410.09;;;27.95;nan
20019;BME280;10170;42.502;26.526;2023-06-14T12:43:53;99407.50;;;27.90;nan
20019;BME280;10170;42.502;26.526;2023-06-14T12:46:20;99399.94;;;27.87;nan
20019;BME280;10170;42.502;26.526;2023-06-14T12:48:47;99399.78;;;28.76;nan
20019;BME280;10170;42.502;26.526;2023-06-14T12:51:14;99405.25;;;29.26;nan
20019;BME280;10170;42.502;26.526;2023-06-14T12:53:41;99396.03;;;29.71;nan
20019;BME280;10170;42.502;26.526;2023-06-14T12:56:08;99400.31;;;31.65;nan
20019;BME280;10170;42.502;26.526;2023-06-14T12:58:34;99402.25;;;33.55;nan
20019;BME280;10170;42.502;26.526;2023-06-14T13:01:01;99391.56;;;32.03;nan
20019;BME280;10170;42.502;26.526;2023-06-14T13:03:28;99384.88;;;30.81;nan
20019;BME280;10170;42.502;26.526;2023-06-14T13:05:55;99392.44;;;29.91;nan
20019;BME280;10170;42.502;26.526;2023-06-14T13:08:22;99394.91;;;29.31;nan
20019;BME280;10170;42.502;26.526;2023-06-14T13:10:51;99386.31;;;28.33;nan
20019;BME280;10170;42.502;26.526;2023-06-14T13:13:17;99376.88;;;27.59;nan
20019;BME280;10170;42.502;26.526;2023-06-14T13:15:44;99383.84;;;28.40;nan
20019;BME280;10170;42.502;26.526;2023-06-14T13:18:12;99376.53;;;29.32;nan
20019;BME280;10170;42.502;26.526;2023-06-14T13:20:42;99378.34;;;29.28;nan
20019;BME280;10170;42.502;26.526;2023-06-14T13:23:09;99382.94;;;28.94;nan
20019;BME280;10170;42.502;26.526;2023-06-14T13:25:37;99384.81;;;28.44;nan
20019;BME280;10170;42.502;26.526;2023-06-14T13:28:04;99350.22;;;28.02;nan
20019;BME280;10170;42.502;26.526;2023-06-14T13:30:32;99390.19;;;28.24;nan
20019;BME280;10170;42.502;26.526;2023-06-14T13:33:00;99391.13;;;28.36;nan
20019;BME280;10170;42.502;26.526;2023-06-14T13:35:27;99390.06;;;28.20;nan
20019;BME280;10170;42.502;26.526;2023-06-14T13:37:54;99380.84;;;27.78;nan